This is the latest recevied weather packets stored in our database for station/object DK2OO-6. If no packets are shown the sender has not sent any weather packets the latest 10 day(s).
| Time | Temp. | Humidity | Pressure | Rain* | Wind** | Luminosity | Snow |
|---|---|---|---|---|---|---|---|
| 1788239414 | 10.56° C | 79% | 1015.6 hPa | 0 mm | - | - | - |
| 1788238203 | 11.11° C | 78% | 1015.5 hPa | 0 mm | - | - | - |
| 1788237599 | 11.11° C | 78% | 1015.5 hPa | 0 mm | - | - | - |
| 1788214657 | 15° C | 70% | 1014.9 hPa | 0 mm | - | - | - |
| 1788214054 | 15.56° C | 69% | 1014.8 hPa | 0 mm | - | - | - |
| 1788211033 | 16.11° C | 67% | 1014.6 hPa | 0 mm | - | - | - |
| 1788208611 | 16.67° C | 66% | 1014.2 hPa | 0 mm | - | - | - |
| 1788207409 | 17.22° C | 65% | 1013.7 hPa | 0 mm | - | - | - |
| 1788206809 | 17.22° C | 64% | 1013.7 hPa | 0 mm | - | - | - |
| 1788205597 | 17.78° C | 63% | 1013.6 hPa | 0 mm | - | - | - |
| 1788204996 | 17.78° C | 62% | 1013.5 hPa | 0 mm | - | - | - |
| 1788204390 | 18.33° C | 62% | 1013.3 hPa | 0 mm | - | - | - |
| 1788203186 | 18.33° C | 60% | 1012.9 hPa | 0 mm | - | - | - |
| 1788201374 | 18.89° C | 58% | 1012.6 hPa | 0 mm | - | - | - |
| 1788200770 | 19.44° C | 57% | 1012.1 hPa | 0 mm | - | - | - |
| 1788197131 | 21.11° C | 53% | 1011.7 hPa | 0 mm | - | - | - |
| 1788195320 | 22.22° C | 50% | 1011.3 hPa | 0 mm | - | - | - |
| 1788194713 | 22.78° C | 49% | 1011.2 hPa | 0 mm | - | - | - |
| 1788192299 | 23.33° C | 46% | 1010.9 hPa | 0 mm | - | - | - |
| 1788191698 | 23.33° C | 46% | 1010.7 hPa | 0 mm | - | - | - |
| 1788191095 | 23.33° C | 47% | 1010.8 hPa | 0 mm | - | - | - |
| 1788190492 | 23.89° C | 46% | 1010.8 hPa | 0 mm | - | - | - |
| 1788189885 | 23.89° C | 46% | 1010.8 hPa | 0 mm | - | - | - |
| 1788189285 | 23.89° C | 46% | 1010.8 hPa | 0 mm | - | - | - |
| 1788188685 | 23.89° C | 47% | 1010.7 hPa | 0 mm | - | - | - |
* Rain latest hour (hover to see other rain measurements)
** Current wind speed in m/s (hover to see current wind gust speed)